Time,TemperatureF,DewpointF,PressureIn,WindDirection,WindDirectionDegrees,WindSpeedMPH,WindSpeedGustMPH,Humidity,HourlyPrecipIn,Conditions,Clouds,dailyrainin,SoftwareType,DateUTC
2013-03-16 00:09:00,35.9,32.0,29.91,West,259,26.0,-999.0,87,-99.99,,,0.00,weatherlink.com 1.10,2013-03-16 04:09:00,
2013-03-16 00:24:00,34.8,33.0,29.91,WSW,247,18.0,-999.0,91,-99.99,,,0.00,weatherlink.com 1.10,2013-03-16 04:24:00,
2013-03-16 00:43:00,34.4,32.0,29.91,WNW,284,11.0,-999.0,92,-99.99,,,0.00,weatherlink.com 1.10,2013-03-16 04:43:00,
2013-03-16 00:54:00,34.3,32.0,29.91,WNW,288,10.0,-999.0,91,-99.99,,,0.00,weatherlink.com 1.10,2013-03-16 04:54:00,
2013-03-16 01:09:00,34.1,31.0,29.90,WSW,237,10.0,-999.0,88,-99.99,,,0.00,weatherlink.com 1.10,2013-03-16 05:09:00,
2013-03-16 01:24:00,34.3,30.0,29.90,WSW,246,11.0,-999.0,85,-99.99,,,0.00,weatherlink.com 1.10,2013-03-16 05:24:00,
2013-03-16 01:39:00,34.3,30.0,29.89,WNW,285,18.0,-999.0,83,-99.99,,,0.00,weatherlink.com 1.10,2013-03-16 05:39:00,
2013-03-16 01:54:00,34.4,29.0,29.88,WSW,250,12.0,-999.0,79,-99.99,,,0.00,weatherlink.com 1.10,2013-03-16 05:54:00,
2013-03-16 02:09:00,34.3,28.0,29.88,SW,225,19.0,-999.0,78,-99.99,,,0.00,weatherlink.com 1.10,2013-03-16 06:09:00,
2013-03-16 02:24:00,34.3,27.0,29.87,WSW,248,9.0,-999.0,76,-99.99,,,0.00,weatherlink.com 1.10,2013-03-16 06:24:00,
2013-03-16 02:39:00,34.2,27.0,29.87,SW,232,15.0,-999.0,75,-99.99,,,0.00,weatherlink.com 1.10,2013-03-16 06:39:00,
2013-03-16 02:54:00,34.3,27.0,29.87,SW,223,16.0,-999.0,74,-99.99,,,0.00,weatherlink.com 1.10,2013-03-16 06:54:00,
2013-03-16 03:09:00,34.3,27.0,29.86,WSW,257,14.0,-999.0,74,-99.99,,,0.00,weatherlink.com 1.10,2013-03-16 07:09:00,
2013-03-16 03:25:00,35.1,28.0,29.84,WSW,239,14.0,-999.0,75,-99.99,,,0.00,weatherlink.com 1.10,2013-03-16 07:25:00,
2013-03-16 03:40:00,35.6,34.0,29.83,SSW,213,15.0,-999.0,92,-99.99,,,0.00,weatherlink.com 1.10,2013-03-16 07:40:00,
2013-03-16 03:57:00,36.6,34.0,29.81,West,267,11.0,-999.0,91,-99.99,,,0.00,weatherlink.com 1.10,2013-03-16 07:57:00,
2013-03-16 04:10:00,36.8,35.0,29.80,WSW,244,18.0,-999.0,91,-99.99,,,0.00,weatherlink.com 1.10,2013-03-16 08:10:00,
2013-03-16 04:25:00,37.3,34.0,29.80,SW,221,19.0,-999.0,89,-99.99,,,0.00,weatherlink.com 1.10,2013-03-16 08:25:00,
2013-03-16 04:40:00,37.9,34.0,29.80,SW,221,6.0,-999.0,87,-99.99,,,0.00,weatherlink.com 1.10,2013-03-16 08:40:00,
2013-03-16 04:55:00,37.7,35.0,29.80,SW,227,11.0,-999.0,88,-99.99,,,0.00,weatherlink.com 1.10,2013-03-16 08:55:00,
2013-03-16 05:10:00,38.4,35.0,29.80,WNW,289,10.0,-999.0,87,-99.99,,,0.00,weatherlink.com 1.10,2013-03-16 09:10:00,
2013-03-16 05:25:00,38.1,35.0,29.81,SW,231,13.0,-999.0,89,-99.99,,,0.00,weatherlink.com 1.10,2013-03-16 09:25:00,
2013-03-16 05:40:00,37.3,35.0,29.81,SW,235,6.0,-999.0,92,-99.99,,,0.02,weatherlink.com 1.10,2013-03-16 09:40:00,
2013-03-16 05:55:00,36.4,34.0,29.82,WNW,285,8.0,-999.0,91,-99.99,,,0.05,weatherlink.com 1.10,2013-03-16 09:55:00,
2013-03-16 06:10:00,36.2,33.0,29.81,West,271,6.0,-999.0,87,-99.99,,,0.08,weatherlink.com 1.10,2013-03-16 10:10:00,
2013-03-16 06:25:00,36.2,32.0,29.79,WSW,243,7.0,-999.0,83,-99.99,,,0.10,weatherlink.com 1.10,2013-03-16 10:25:00,
2013-03-16 06:40:00,36.3,31.0,29.79,WSW,254,12.0,-999.0,81,-99.99,,,0.10,weatherlink.com 1.10,2013-03-16 10:40:00,
2013-03-16 06:55:00,37.2,30.0,29.79,WSW,258,11.0,-999.0,76,-99.99,,,0.10,weatherlink.com 1.10,2013-03-16 10:55:00,
2013-03-16 07:10:00,37.5,31.0,29.79,WSW,246,13.0,-999.0,77,-99.99,,,0.10,weatherlink.com 1.10,2013-03-16 11:10:00,
2013-03-16 07:25:00,38.6,31.0,29.78,SSW,208,13.0,-999.0,73,-99.99,,,0.10,weatherlink.com 1.10,2013-03-16 11:25:00,
2013-03-16 07:40:00,39.3,31.0,29.77,SW,236,20.0,-999.0,71,-99.99,,,0.10,weatherlink.com 1.10,2013-03-16 11:40:00,
2013-03-16 07:55:00,39.6,31.0,29.78,SW,234,12.0,-999.0,71,-99.99,,,0.10,weatherlink.com 1.10,2013-03-16 11:55:00,
2013-03-16 08:14:00,40.0,31.0,29.77,West,263,6.0,-999.0,71,-99.99,,,0.10,weatherlink.com 1.10,2013-03-16 12:14:00,
2013-03-16 08:25:00,40.2,31.0,29.77,SSW,213,9.0,-999.0,71,-99.99,,,0.10,weatherlink.com 1.10,2013-03-16 12:25:00,
2013-03-16 08:40:00,40.6,32.0,29.76,WSW,241,16.0,-999.0,70,-99.99,,,0.10,weatherlink.com 1.10,2013-03-16 12:40:00,
2013-03-16 08:55:00,41.0,32.0,29.76,West,261,6.0,-999.0,69,-99.99,,,0.10,weatherlink.com 1.10,2013-03-16 12:55:00,
2013-03-16 09:10:00,41.4,32.0,29.76,WSW,243,14.0,-999.0,70,-99.99,,,0.10,weatherlink.com 1.10,2013-03-16 13:10:00,
2013-03-16 09:25:00,41.9,34.0,29.75,WSW,255,21.0,-999.0,73,-99.99,,,0.10,weatherlink.com 1.10,2013-03-16 13:25:00,
2013-03-16 09:40:00,42.1,35.0,29.75,SW,231,21.0,-999.0,77,-99.99,,,0.10,weatherlink.com 1.10,2013-03-16 13:40:00,
2013-03-16 09:55:00,42.3,38.0,29.74,WNW,282,24.0,-999.0,83,-99.99,,,0.10,weatherlink.com 1.10,2013-03-16 13:55:00,
2013-03-16 10:10:00,42.7,39.0,29.73,West,263,27.0,-999.0,86,-99.99,,,0.10,weatherlink.com 1.10,2013-03-16 14:10:00,
2013-03-16 10:25:00,42.7,39.0,29.73,West,261,19.0,-999.0,85,-99.99,,,0.10,weatherlink.com 1.10,2013-03-16 14:25:00,
2013-03-16 10:40:00,42.3,37.0,29.72,WSW,246,19.0,-999.0,82,-99.99,,,0.12,weatherlink.com 1.10,2013-03-16 14:40:00,
2013-03-16 10:55:00,42.2,35.0,29.72,SW,221,20.0,-999.0,76,-99.99,,,0.12,weatherlink.com 1.10,2013-03-16 14:55:00,
2013-03-16 11:10:00,42.4,35.0,29.71,WSW,254,26.0,-999.0,74,-99.99,,,0.12,weatherlink.com 1.10,2013-03-16 15:10:00,
2013-03-16 11:27:00,42.6,35.0,29.71,SW,221,15.0,-999.0,73,-99.99,,,0.14,weatherlink.com 1.10,2013-03-16 15:27:00,
2013-03-16 11:40:00,42.5,34.0,29.71,West,270,13.0,-999.0,72,-99.99,,,0.14,weatherlink.com 1.10,2013-03-16 15:40:00,
2013-03-16 11:55:00,42.3,34.0,29.72,WSW,252,16.0,-999.0,71,-99.99,,,0.14,weatherlink.com 1.10,2013-03-16 15:55:00,
2013-03-16 12:10:00,42.3,33.0,29.71,SW,231,13.0,-999.0,69,-99.99,,,0.15,weatherlink.com 1.10,2013-03-16 16:10:00,
2013-03-16 12:25:00,42.7,33.0,29.72,West,276,8.0,-999.0,69,-99.99,,,0.15,weatherlink.com 1.10,2013-03-16 16:25:00,
2013-03-16 12:40:00,42.6,33.0,29.71,West,265,5.0,-999.0,68,-99.99,,,0.15,weatherlink.com 1.10,2013-03-16 16:40:00,
2013-03-16 12:55:00,42.5,33.0,29.73,SW,220,13.0,-999.0,68,-99.99,,,0.16,weatherlink.com 1.10,2013-03-16 16:55:00,
2013-03-16 13:11:00,42.9,33.0,29.71,West,271,13.0,-999.0,68,-99.99,,,0.18,weatherlink.com 1.10,2013-03-16 17:11:00,
2013-03-16 13:26:00,44.0,34.0,29.70,WSW,238,14.0,-999.0,67,-99.99,,,0.20,weatherlink.com 1.10,2013-03-16 17:26:00,
2013-03-16 13:41:00,44.1,34.0,29.69,SW,223,12.0,-999.0,67,-99.99,,,0.20,weatherlink.com 1.10,2013-03-16 17:41:00,
2013-03-16 13:56:00,45.4,35.0,29.69,SW,225,8.0,-999.0,67,-99.99,,,0.20,weatherlink.com 1.10,2013-03-16 17:56:00,
2013-03-16 14:11:00,46.6,36.0,29.69,WSW,239,12.0,-999.0,66,-99.99,,,0.20,weatherlink.com 1.10,2013-03-16 18:11:00,
2013-03-16 14:26:00,46.1,40.0,29.69,SW,234,19.0,-999.0,80,-99.99,,,0.20,weatherlink.com 1.10,2013-03-16 18:26:00,
2013-03-16 14:42:00,45.3,37.0,29.70,WSW,242,13.0,-999.0,74,-99.99,,,0.22,weatherlink.com 1.10,2013-03-16 18:42:00,
2013-03-16 14:56:00,45.0,36.0,29.69,WSW,246,12.0,-999.0,70,-99.99,,,0.25,weatherlink.com 1.10,2013-03-16 18:56:00,
2013-03-16 15:26:00,44.2,35.0,29.68,WSW,251,8.0,-999.0,70,-99.99,,,0.28,weatherlink.com 1.10,2013-03-16 19:26:00,
2013-03-16 15:41:00,43.7,34.0,29.68,WSW,253,23.0,-999.0,69,-99.99,,,0.30,weatherlink.com 1.10,2013-03-16 19:41:00,
2013-03-16 15:56:00,43.9,34.0,29.69,SW,232,12.0,-999.0,68,-99.99,,,0.30,weatherlink.com 1.10,2013-03-16 19:56:00,
2013-03-16 16:41:00,44.3,34.0,29.69,West,260,23.0,-999.0,67,-99.99,,,0.30,weatherlink.com 1.10,2013-03-16 20:41:00,
2013-03-16 16:56:00,44.5,34.0,29.69,SW,220,21.0,-999.0,67,-99.99,,,0.30,weatherlink.com 1.10,2013-03-16 20:56:00,
2013-03-16 17:11:00,44.7,34.0,29.68,WSW,242,24.0,-999.0,67,-99.99,,,0.30,weatherlink.com 1.10,2013-03-16 21:11:00,
2013-03-16 17:26:00,44.9,34.0,29.70,West,268,19.0,-999.0,67,-99.99,,,0.30,weatherlink.com 1.10,2013-03-16 21:26:00,
2013-03-16 17:41:00,44.9,34.0,29.70,SSW,210,21.0,-999.0,67,-99.99,,,0.30,weatherlink.com 1.10,2013-03-16 21:41:00,
2013-03-16 17:56:00,44.9,34.0,29.70,SW,219,14.0,-999.0,67,-99.99,,,0.30,weatherlink.com 1.10,2013-03-16 21:56:00,
2013-03-16 18:11:00,44.9,34.0,29.71,West,266,18.0,-999.0,67,-99.99,,,0.30,weatherlink.com 1.10,2013-03-16 22:11:00,
2013-03-16 18:26:00,44.7,34.0,29.72,SW,229,14.0,-999.0,67,-99.99,,,0.30,weatherlink.com 1.10,2013-03-16 22:26:00,
2013-03-16 18:41:00,44.3,34.0,29.72,West,279,14.0,-999.0,67,-99.99,,,0.30,weatherlink.com 1.10,2013-03-16 22:41:00,
2013-03-16 18:59:00,43.9,34.0,29.73,NW,321,8.0,-999.0,67,-99.99,,,0.30,weatherlink.com 1.10,2013-03-16 22:59:00,
2013-03-16 19:11:00,43.8,33.0,29.73,SW,232,24.0,-999.0,67,-99.99,,,0.30,weatherlink.com 1.10,2013-03-16 23:11:00,
2013-03-16 19:26:00,43.7,33.0,29.75,WSW,254,20.0,-999.0,67,-99.99,,,0.30,weatherlink.com 1.10,2013-03-16 23:26:00,
2013-03-16 19:41:00,43.6,33.0,29.76,West,278,10.0,-999.0,67,-99.99,,,0.30,weatherlink.com 1.10,2013-03-16 23:41:00,
2013-03-16 19:56:00,43.3,33.0,29.77,West,263,19.0,-999.0,67,-99.99,,,0.30,weatherlink.com 1.10,2013-03-16 23:56:00,
2013-03-16 20:11:00,43.1,33.0,29.79,WSW,243,24.0,-999.0,67,-99.99,,,0.30,weatherlink.com 1.10,2013-03-17 00:11:00,
2013-03-16 20:26:00,42.7,34.0,29.79,West,274,6.0,-999.0,72,-99.99,,,0.30,weatherlink.com 1.10,2013-03-17 00:26:00,
2013-03-16 20:41:00,42.3,35.0,29.80,SSW,212,13.0,-999.0,75,-99.99,,,0.30,weatherlink.com 1.10,2013-03-17 00:41:00,
2013-03-16 20:56:00,42.2,36.0,29.80,West,271,8.0,-999.0,79,-99.99,,,0.30,weatherlink.com 1.10,2013-03-17 00:56:00,
2013-03-16 21:11:00,41.4,37.0,29.81,West,279,13.0,-999.0,83,-99.99,,,0.30,weatherlink.com 1.10,2013-03-17 01:11:00,
2013-03-16 21:41:00,40.2,37.0,29.84,West,273,14.0,-999.0,89,-99.99,,,0.30,weatherlink.com 1.10,2013-03-17 01:41:00,
2013-03-16 21:56:00,39.7,37.0,29.84,SSW,212,13.0,-999.0,88,-99.99,,,0.30,weatherlink.com 1.10,2013-03-17 01:56:00,
2013-03-16 22:12:00,39.3,35.0,29.85,WNW,289,9.0,-999.0,85,-99.99,,,0.30,weatherlink.com 1.10,2013-03-17 02:12:00,
2013-03-16 22:26:00,38.8,35.0,29.85,WSW,244,6.0,-999.0,87,-99.99,,,0.30,weatherlink.com 1.10,2013-03-17 02:26:00,
2013-03-16 22:41:00,38.2,34.0,29.86,WSW,237,10.0,-999.0,86,-99.99,,,0.30,weatherlink.com 1.10,2013-03-17 02:41:00,
2013-03-16 22:56:00,37.6,33.0,29.85,WSW,244,5.0,-999.0,83,-99.99,,,0.30,weatherlink.com 1.10,2013-03-17 02:56:00,
2013-03-16 23:11:00,37.2,32.0,29.85,WSW,248,7.0,-999.0,81,-99.99,,,0.30,weatherlink.com 1.10,2013-03-17 03:11:00,
2013-03-16 23:26:00,36.7,32.0,29.86,SW,233,9.0,-999.0,82,-99.99,,,0.30,weatherlink.com 1.10,2013-03-17 03:26:00,
2013-03-16 23:41:00,36.4,31.0,29.86,WSW,250,6.0,-999.0,80,-99.99,,,0.30,weatherlink.com 1.10,2013-03-17 03:41:00,
2013-03-16 23:56:00,36.2,29.0,29.85,WSW,258,18.0,-999.0,76,-99.99,,,0.30,weatherlink.com 1.10,2013-03-17 03:56:00,